Yellowstone Airport
KWYS : now visible

Airfield :











YOU CAN JOIN US ON...

 
LOGIN :

Register | Disclaimer

   EN    FR    IT 

 









Legend :    VFR   Marginal VFR   IFR   Intensive IFR   Very Intensive IFR
Visi :
Ceiling :
>= 8 km
>= 3000ft
5 to 8 km
1000 to 3000 ft
1500m to 5 km
500 to 1000 ft
800 to 1500m
200 to 500 ft
< 800m
< 200 ft
Symbols :   Thunderstorms  Fog  Heavy snow  Heavy precipitations  Wind > 20 kt






- Airport Elevation : 6649 ft


KWYS - Yellowstone

CURRENT METAR :
  • 110810Z AUTO VRB04KT 10SM OVC021 M04/M06 A3014 RMK AO2

EXPIRED METARs :
  • 110750Z AUTO 00000KT 10SM OVC021 M04/M06 A3015 RMK AO2
  • 110725Z AUTO VRB04KT 10SM SCT016 OVC021 M04/M05 A3015 RMK AO2
  • 110710Z AUTO 14005KT 10SM SCT015 OVC021 M04/M05 A3016 RMK AO2
  • 110650Z AUTO 15006KT 10SM SCT017 OVC022 M04/M05 A3016 RMK AO2
  • 110630Z AUTO 15005KT 10SM OVC021 M04/M05 A3017 RMK AO2
  • 110600Z AUTO 16007KT 10SM OVC020 M04/M05 A3017 RMK AO2
  • 110545Z AUTO 16007KT 10SM OVC020 M04/M05 A3017 RMK AO2
  • 110525Z AUTO 17008KT 10SM OVC020 M04/M05 A3017 RMK AO2

TAF KWYS
Valid from the 11 at 06:00 until the 12 at 06:00 UTC


110547Z 1106/1206 29008KT P6SM VCFG OVC020
TEMPO 1108/1112 3SM BR BKN010
FM111500 22010KT 3SM -SN SCT020 OVC040
TEMPO 1118/1122 1SM -SN BKN010
FM120000 22008KT 6SM -SHSN SCT025 BKN050



MET'MAP, your aeronautical weather chart ! - Copyright ORBIFLY December 2007 - Disclaimer

ORBIFLY MET'MAP TEAM :

Programming & Development : Alexandra Zaïnal
Concept & original design : Baudouin d'Aumeries
Assistance for programming : Marc-Olivier Méhu
Technical & hardware support : Manuel Goepfert

Contact : metmap@orbifly.com




SOURCES & CREDITS :

   NOAA       Earth
Advisory